sensor_id;sensor_type;location;lat;lon;timestamp;P1;durP1;ratioP1;P2;durP2;ratioP2
19364;SDS011;9818;48.382;10.850;2022-09-24T07:10:31;8.93;;;7.07;;
19364;SDS011;9818;48.382;10.850;2022-09-24T07:13:00;8.77;;;6.50;;
19364;SDS011;9818;48.382;10.850;2022-09-24T07:15:29;9.00;;;6.23;;
19364;SDS011;9818;48.382;10.850;2022-09-24T07:17:57;14.10;;;6.73;;
19364;SDS011;9818;48.382;10.850;2022-09-24T07:20:29;7.67;;;6.67;;
19364;SDS011;9818;48.382;10.850;2022-09-24T07:23:00;10.73;;;6.87;;
19364;SDS011;9818;48.382;10.850;2022-09-24T07:25:30;7.30;;;6.50;;
19364;SDS011;9818;48.382;10.850;2022-09-24T07:28:00;6.70;;;5.90;;
19364;SDS011;9818;48.382;10.850;2022-09-24T07:30:30;7.00;;;6.30;;
19364;SDS011;9818;48.382;10.850;2022-09-24T08:05:20;6.77;;;6.07;;
19364;SDS011;9818;48.382;10.850;2022-09-24T08:07:50;6.83;;;6.00;;
19364;SDS011;9818;48.382;10.850;2022-09-24T08:40:13;4.17;;;3.77;;
19364;SDS011;9818;48.382;10.850;2022-09-24T08:42:49;4.20;;;3.80;;
19364;SDS011;9818;48.382;10.850;2022-09-24T08:45:25;5.60;;;4.40;;
19364;SDS011;9818;48.382;10.850;2022-09-24T08:48:20;4.53;;;3.77;;
19364;SDS011;9818;48.382;10.850;2022-09-24T08:50:52;4.47;;;4.00;;
19364;SDS011;9818;48.382;10.850;2022-09-24T08:53:25;4.67;;;4.13;;
19364;SDS011;9818;48.382;10.850;2022-09-24T08:55:59;4.43;;;4.03;;
19364;SDS011;9818;48.382;10.850;2022-09-24T08:58:37;4.53;;;4.00;;
19364;SDS011;9818;48.382;10.850;2022-09-24T09:01:14;6.77;;;3.87;;
19364;SDS011;9818;48.382;10.850;2022-09-24T09:03:51;4.23;;;3.83;;
19364;SDS011;9818;48.382;10.850;2022-09-24T09:06:34;5.13;;;4.30;;
19364;SDS011;9818;48.382;10.850;2022-09-24T09:09:20;4.53;;;4.03;;
19364;SDS011;9818;48.382;10.850;2022-09-24T09:11:56;5.30;;;4.20;;
19364;SDS011;9818;48.382;10.850;2022-09-24T09:14:33;4.80;;;3.73;;
19364;SDS011;9818;48.382;10.850;2022-09-24T09:17:12;5.50;;;4.17;;
19364;SDS011;9818;48.382;10.850;2022-09-24T09:19:52;3.87;;;3.57;;
19364;SDS011;9818;48.382;10.850;2022-09-24T09:22:27;4.77;;;4.00;;
19364;SDS011;9818;48.382;10.850;2022-09-24T09:25:01;5.30;;;4.30;;
19364;SDS011;9818;48.382;10.850;2022-09-24T09:27:38;5.93;;;3.90;;
19364;SDS011;9818;48.382;10.850;2022-09-24T10:26:34;4.90;;;3.53;;
19364;SDS011;9818;48.382;10.850;2022-09-24T10:29:04;5.87;;;4.10;;
19364;SDS011;9818;48.382;10.850;2022-09-24T10:31:50;4.80;;;4.10;;
19364;SDS011;9818;48.382;10.850;2022-09-24T10:34:24;4.67;;;3.83;;
19364;SDS011;9818;48.382;10.850;2022-09-24T10:36:57;4.40;;;3.93;;
19364;SDS011;9818;48.382;10.850;2022-09-24T10:39:27;4.93;;;3.97;;
19364;SDS011;9818;48.382;10.850;2022-09-24T10:41:56;5.07;;;3.67;;
19364;SDS011;9818;48.382;10.850;2022-09-24T10:44:28;6.07;;;4.07;;
19364;SDS011;9818;48.382;10.850;2022-09-24T10:47:05;4.20;;;3.80;;
19364;SDS011;9818;48.382;10.850;2022-09-24T10:49:53;4.33;;;3.93;;
19364;SDS011;9818;48.382;10.850;2022-09-24T10:52:43;10.50;;;8.07;;
19364;SDS011;9818;48.382;10.850;2022-09-24T10:55:25;6.20;;;5.60;;
19364;SDS011;9818;48.382;10.850;2022-09-24T10:58:01;6.27;;;4.43;;
19364;SDS011;9818;48.382;10.850;2022-09-24T11:00:36;4.47;;;3.70;;
19364;SDS011;9818;48.382;10.850;2022-09-24T11:06:11;4.87;;;4.10;;
19364;SDS011;9818;48.382;10.850;2022-09-24T11:08:51;4.60;;;4.20;;
19364;SDS011;9818;48.382;10.850;2022-09-24T11:11:33;5.70;;;4.20;;
19364;SDS011;9818;48.382;10.850;2022-09-24T11:14:17;4.17;;;3.60;;
19364;SDS011;9818;48.382;10.850;2022-09-24T11:16:59;5.30;;;4.10;;
19364;SDS011;9818;48.382;10.850;2022-09-24T11:20:01;4.57;;;3.77;;
19364;SDS011;9818;48.382;10.850;2022-09-24T11:22:55;4.33;;;3.93;;
19364;SDS011;9818;48.382;10.850;2022-09-24T11:25:46;4.67;;;4.20;;
19364;SDS011;9818;48.382;10.850;2022-09-24T11:28:31;6.03;;;4.30;;
19364;SDS011;9818;48.382;10.850;2022-09-24T11:31:22;5.43;;;3.93;;
19364;SDS011;9818;48.382;10.850;2022-09-24T11:34:04;5.47;;;4.17;;
19364;SDS011;9818;48.382;10.850;2022-09-24T11:37:02;5.20;;;4.47;;
19364;SDS011;9818;48.382;10.850;2022-09-24T11:39:50;4.70;;;4.30;;
19364;SDS011;9818;48.382;10.850;2022-09-24T11:42:28;4.37;;;3.97;;
19364;SDS011;9818;48.382;10.850;2022-09-24T11:45:20;5.40;;;4.40;;
19364;SDS011;9818;48.382;10.850;2022-09-24T11:48:16;4.93;;;4.20;;
19364;SDS011;9818;48.382;10.850;2022-09-24T11:51:06;4.50;;;3.97;;
19364;SDS011;9818;48.382;10.850;2022-09-24T11:53:46;4.53;;;3.50;;
19364;SDS011;9818;48.382;10.850;2022-09-24T11:56:27;4.57;;;4.07;;
19364;SDS011;9818;48.382;10.850;2022-09-24T11:59:09;4.47;;;4.07;;
19364;SDS011;9818;48.382;10.850;2022-09-24T12:01:45;5.87;;;4.57;;
19364;SDS011;9818;48.382;10.850;2022-09-24T12:04:18;4.53;;;4.00;;
19364;SDS011;9818;48.382;10.850;2022-09-24T12:06:53;6.87;;;4.27;;
19364;SDS011;9818;48.382;10.850;2022-09-24T12:09:29;4.70;;;4.20;;
19364;SDS011;9818;48.382;10.850;2022-09-24T12:12:05;4.30;;;3.90;;
19364;SDS011;9818;48.382;10.850;2022-09-24T12:14:41;4.37;;;3.97;;
19364;SDS011;9818;48.382;10.850;2022-09-24T12:17:15;4.30;;;3.90;;
19364;SDS011;9818;48.382;10.850;2022-09-24T12:19:49;5.43;;;4.20;;
19364;SDS011;9818;48.382;10.850;2022-09-24T12:22:23;4.70;;;4.20;;
19364;SDS011;9818;48.382;10.850;2022-09-24T12:24:54;3.90;;;3.50;;
19364;SDS011;9818;48.382;10.850;2022-09-24T12:27:30;4.97;;;4.10;;
19364;SDS011;9818;48.382;10.850;2022-09-24T12:30:03;4.20;;;3.80;;
19364;SDS011;9818;48.382;10.850;2022-09-24T12:32:53;4.80;;;4.33;;
19364;SDS011;9818;48.382;10.850;2022-09-24T12:35:33;4.40;;;4.00;;
19364;SDS011;9818;48.382;10.850;2022-09-24T12:38:11;5.03;;;3.20;;
19364;SDS011;9818;48.382;10.850;2022-09-24T12:43:39;3.57;;;3.27;;
19364;SDS011;9818;48.382;10.850;2022-09-24T12:46:14;3.17;;;2.97;;
19364;SDS011;9818;48.382;10.850;2022-09-24T12:48:45;4.87;;;3.40;;
19364;SDS011;9818;48.382;10.850;2022-09-24T12:51:16;4.93;;;3.73;;
19364;SDS011;9818;48.382;10.850;2022-09-24T12:53:55;4.33;;;3.87;;
19364;SDS011;9818;48.382;10.850;2022-09-24T12:56:26;4.47;;;3.40;;
19364;SDS011;9818;48.382;10.850;2022-09-24T12:59:01;4.73;;;3.33;;
19364;SDS011;9818;48.382;10.850;2022-09-24T13:01:31;5.47;;;3.60;;
19364;SDS011;9818;48.382;10.850;2022-09-24T13:04:02;3.77;;;3.47;;
19364;SDS011;9818;48.382;10.850;2022-09-24T13:06:33;3.80;;;3.40;;
19364;SDS011;9818;48.382;10.850;2022-09-24T15:40:57;2.60;;;2.40;;
19364;SDS011;9818;48.382;10.850;2022-09-24T15:43:26;2.67;;;2.43;;
19364;SDS011;9818;48.382;10.850;2022-09-24T15:45:55;4.80;;;2.63;;
19364;SDS011;9818;48.382;10.850;2022-09-24T15:48:24;2.97;;;2.47;;
19364;SDS011;9818;48.382;10.850;2022-09-24T15:50:55;3.37;;;2.70;;
19364;SDS011;9818;48.382;10.850;2022-09-24T16:20:50;3.63;;;2.63;;
19364;SDS011;9818;48.382;10.850;2022-09-24T16:23:19;3.43;;;2.50;;
19364;SDS011;9818;48.382;10.850;2022-09-24T16:28:28;4.30;;;3.20;;
19364;SDS011;9818;48.382;10.850;2022-09-24T16:30:57;4.20;;;3.57;;
